createdAt,value
2023-04-20T00:00:53.605Z,100373.72
2023-04-20T00:03:21.543Z,100375.88
2023-04-20T00:05:52.139Z,100376.16
2023-04-20T00:08:19.484Z,100378.22
2023-04-20T00:10:47.094Z,100361.56
2023-04-20T00:13:14.431Z,100356.28
2023-04-20T00:15:41.905Z,100368.38
2023-04-20T00:18:09.314Z,100353.44
2023-04-20T00:20:36.933Z,100350.75
2023-04-20T00:23:04.416Z,100354.75
2023-04-20T00:25:32.378Z,100355.06
2023-04-20T00:28:00.370Z,100348.25
2023-04-20T00:30:27.737Z,100356.34
2023-04-20T00:32:55.422Z,100372.00
2023-04-20T00:35:22.851Z,100377.53
2023-04-20T00:37:52.305Z,100388.88
2023-04-20T00:40:19.848Z,100386.50
2023-04-20T00:42:47.264Z,100385.22
2023-04-20T00:45:14.888Z,100410.09
2023-04-20T00:47:43.053Z,100414.22
2023-04-20T00:50:11.496Z,100405.78
2023-04-20T00:52:40.871Z,100412.69
2023-04-20T00:55:08.853Z,100404.19
2023-04-20T00:57:36.544Z,100399.06
2023-04-20T01:00:06.801Z,100404.34
2023-04-20T01:02:34.255Z,100396.00
2023-04-20T01:05:02.199Z,100386.84
2023-04-20T01:07:30.244Z,100385.75
2023-04-20T01:09:57.579Z,100389.50
2023-04-20T01:12:25.005Z,100369.38
2023-04-20T01:14:52.378Z,100362.09
2023-04-20T01:17:20.649Z,100364.19
2023-04-20T01:19:49.170Z,100357.44
2023-04-20T01:22:22.934Z,100346.47
2023-04-20T01:24:50.330Z,100334.31
2023-04-20T01:27:17.697Z,100346.94
2023-04-20T01:29:45.898Z,100331.78
2023-04-20T01:32:13.526Z,100319.91
2023-04-20T01:34:41.939Z,100319.22
2023-04-20T01:37:09.728Z,100312.25
2023-04-20T01:39:40.331Z,100332.75
2023-04-20T01:42:07.883Z,100328.41
2023-04-20T01:44:35.451Z,100305.81
2023-04-20T01:47:02.910Z,100319.25
2023-04-20T01:49:30.262Z,100335.94
2023-04-20T01:51:58.378Z,100340.25
2023-04-20T01:54:25.869Z,100326.31
2023-04-20T01:56:53.265Z,100338.44
2023-04-20T01:59:20.634Z,100344.63
2023-04-20T02:01:48.077Z,100337.00
2023-04-20T02:04:15.679Z,100339.97
2023-04-20T02:06:43.164Z,100333.88
2023-04-20T02:09:10.747Z,100359.44
2023-04-20T02:11:38.216Z,100339.16
2023-04-20T02:14:07.837Z,100343.72
2023-04-20T02:16:36.661Z,100330.91
2023-04-20T02:19:04.138Z,100339.59
2023-04-20T02:21:31.604Z,100333.88
2023-04-20T02:23:58.967Z,100322.41
2023-04-20T02:26:27.606Z,100331.44
2023-04-20T02:28:55.073Z,100322.03
2023-04-20T02:31:22.508Z,100337.78
2023-04-20T02:33:50.071Z,100331.22
2023-04-20T02:36:17.445Z,100329.34
2023-04-20T02:38:44.811Z,100326.59
2023-04-20T02:41:12.158Z,100342.25
2023-04-20T02:43:40.498Z,100340.44
2023-04-20T02:46:08.259Z,100333.25
2023-04-20T02:48:35.712Z,100329.19
2023-04-20T02:51:03.519Z,100325.50
2023-04-20T02:53:35.886Z,100328.41
2023-04-20T02:56:26.377Z,100330.97
2023-04-20T02:58:56.401Z,100309.09
2023-04-20T03:01:36.586Z,100309.53
2023-04-20T03:04:11.048Z,100322.19
2023-04-20T03:06:45.159Z,100324.69
2023-04-20T03:09:18.760Z,100316.66
2023-04-20T03:12:06.719Z,100306.38
2023-04-20T03:15:06.355Z,100314.06
2023-04-20T03:17:52.581Z,100313.75
2023-04-20T03:20:20.046Z,100307.38
2023-04-20T03:22:47.647Z,100310.28
2023-04-20T03:25:16.293Z,100301.25
2023-04-20T03:28:06.589Z,100295.81
2023-04-20T03:30:34.680Z,100298.97
2023-04-20T03:33:10.522Z,100298.75
2023-04-20T03:35:39.460Z,100300.56
2023-04-20T03:38:06.947Z,100295.19
2023-04-20T03:40:34.422Z,100310.03
2023-04-20T03:43:02.195Z,100288.28
2023-04-20T03:45:29.680Z,100305.50
2023-04-20T03:47:57.112Z,100303.19
2023-04-20T03:50:25.967Z,100296.28
2023-04-20T03:52:53.334Z,100287.19
2023-04-20T03:55:21.416Z,100305.66
2023-04-20T03:57:55.547Z,100285.53
2023-04-20T04:00:24.644Z,100303.72
2023-04-20T04:02:58.307Z,100306.97
2023-04-20T04:05:28.778Z,100308.91
2023-04-20T04:07:56.208Z,100299.34
2023-04-20T04:10:23.813Z,100288.13
2023-04-20T04:12:51.207Z,100321.59
2023-04-20T04:15:21.551Z,100302.50
2023-04-20T04:17:55.974Z,100307.47
2023-04-20T04:20:23.711Z,100322.94
2023-04-20T04:22:52.178Z,100322.84
2023-04-20T04:25:37.590Z,100326.38
2023-04-20T04:28:05.014Z,100331.88
2023-04-20T04:30:34.232Z,100330.47
2023-04-20T04:33:04.912Z,100331.59
2023-04-20T04:35:35.006Z,100332.78
2023-04-20T04:38:02.606Z,100333.75
2023-04-20T04:40:30.346Z,100321.84
2023-04-20T04:43:00.344Z,100325.50
2023-04-20T04:45:28.069Z,100333.16
2023-04-20T04:47:57.204Z,100325.38
2023-04-20T04:50:24.735Z,100325.88
2023-04-20T04:52:52.733Z,100319.41
2023-04-20T04:55:20.024Z,100312.38
2023-04-20T04:57:47.386Z,100285.53
2023-04-20T05:00:15.941Z,100308.63
2023-04-20T05:02:43.365Z,100330.72
2023-04-20T05:05:10.939Z,100324.72
2023-04-20T05:07:40.034Z,100326.88
2023-04-20T05:10:08.337Z,100320.22
2023-04-20T05:12:36.206Z,100310.69
2023-04-20T05:15:03.782Z,100313.38
2023-04-20T05:17:31.347Z,100328.59
2023-04-20T05:19:58.751Z,100335.81
2023-04-20T05:22:26.113Z,100333.50
2023-04-20T05:24:53.584Z,100343.59
2023-04-20T05:27:20.965Z,100311.13
2023-04-20T05:29:48.291Z,100341.94
2023-04-20T05:32:15.691Z,100320.84
2023-04-20T05:34:43.032Z,100335.00
2023-04-20T05:37:10.403Z,100331.84
2023-04-20T05:39:37.809Z,100338.47
2023-04-20T05:42:05.219Z,100333.06
2023-04-20T05:44:34.019Z,100329.69
2023-04-20T05:47:01.464Z,100331.56
2023-04-20T05:49:28.807Z,100343.03
2023-04-20T05:51:56.213Z,100352.25
2023-04-20T05:54:23.607Z,100345.19
2023-04-20T05:56:50.956Z,100354.69
2023-04-20T05:59:18.742Z,100343.25
2023-04-20T06:01:46.281Z,100354.47
2023-04-20T06:04:13.881Z,100345.72
2023-04-20T06:06:41.514Z,100360.50
2023-04-20T06:09:08.943Z,100353.13
2023-04-20T06:11:36.565Z,100338.91
2023-04-20T06:14:03.942Z,100341.84
2023-04-20T06:16:31.602Z,100348.28
2023-04-20T06:18:59.068Z,100334.97
2023-04-20T06:21:27.282Z,100340.72
2023-04-20T06:23:54.642Z,100361.84
2023-04-20T06:26:22.186Z,100352.72
2023-04-20T06:28:51.874Z,100339.34
2023-04-20T06:31:20.536Z,100335.59
2023-04-20T06:33:48.055Z,100358.53
2023-04-20T06:36:15.548Z,100359.97
2023-04-20T06:38:42.890Z,100362.09
2023-04-20T06:41:10.276Z,100346.66
2023-04-20T06:43:37.597Z,100349.34
2023-04-20T06:46:05.020Z,100340.91
2023-04-20T06:48:33.187Z,100369.66
2023-04-20T06:51:01.692Z,100370.22
2023-04-20T06:53:29.159Z,100351.41
2023-04-20T06:55:56.980Z,100366.75
2023-04-20T06:58:24.429Z,100370.59
2023-04-20T07:00:51.949Z,100358.38
2023-04-20T07:03:19.680Z,100351.72
2023-04-20T07:05:47.211Z,100374.03
2023-04-20T07:08:16.002Z,100356.97
2023-04-20T07:10:43.619Z,100364.75
2023-04-20T07:13:11.252Z,100366.31
2023-04-20T07:15:38.581Z,100363.78
2023-04-20T07:18:06.361Z,100375.28
2023-04-20T07:20:33.846Z,100369.28
2023-04-20T07:23:01.183Z,100381.50
2023-04-20T07:25:29.432Z,100368.19
2023-04-20T07:27:57.028Z,100364.44
2023-04-20T07:30:24.781Z,100353.94
2023-04-20T07:32:52.209Z,100370.38
2023-04-20T07:35:19.726Z,100358.69
2023-04-20T07:37:47.528Z,100369.59
2023-04-20T07:40:16.834Z,100356.22
2023-04-20T07:42:44.197Z,100362.63
2023-04-20T07:45:12.904Z,100369.13
2023-04-20T07:47:40.613Z,100380.38
2023-04-20T07:50:08.290Z,100389.66
2023-04-20T07:52:35.852Z,100383.06
2023-04-20T07:55:03.250Z,100384.38
2023-04-20T07:57:31.986Z,100382.56
2023-04-20T07:59:59.429Z,100363.56
2023-04-20T08:02:27.000Z,100399.94
2023-04-20T08:04:54.791Z,100404.00
2023-04-20T08:07:22.612Z,100390.88
2023-04-20T08:09:50.067Z,100373.34
2023-04-20T08:12:17.434Z,100384.53
2023-04-20T08:14:45.264Z,100378.97
2023-04-20T08:17:12.641Z,100385.72
2023-04-20T08:19:41.089Z,100387.88
2023-04-20T08:22:12.295Z,100380.75
2023-04-20T08:24:39.647Z,100389.94
2023-04-20T08:27:08.921Z,100388.94
2023-04-20T08:29:36.733Z,100392.69
2023-04-20T08:32:04.882Z,100384.75
2023-04-20T08:34:32.547Z,100379.75
2023-04-20T08:36:59.978Z,100387.34
2023-04-20T08:39:27.416Z,100385.75
2023-04-20T08:41:55.775Z,100380.94
2023-04-20T08:44:24.423Z,100389.22
2023-04-20T08:46:51.941Z,100396.78
2023-04-20T08:49:20.011Z,100375.84
2023-04-20T08:51:48.792Z,100385.69
2023-04-20T08:54:16.922Z,100368.31
2023-04-20T08:56:48.261Z,100362.34
2023-04-20T08:59:16.891Z,100382.88
2023-04-20T09:01:44.917Z,100378.22
2023-04-20T09:04:27.173Z,100374.91
2023-04-20T09:06:56.541Z,100381.22
2023-04-20T09:09:25.657Z,100379.38
2023-04-20T09:12:04.148Z,100377.78
2023-04-20T09:14:48.721Z,100379.94
2023-04-20T09:17:18.039Z,100378.28
2023-04-20T09:19:46.616Z,100378.38
2023-04-20T09:22:14.576Z,100379.91
2023-04-20T09:24:42.756Z,100369.66
2023-04-20T09:27:17.953Z,100371.47
2023-04-20T09:29:57.839Z,100374.69
2023-04-20T09:32:26.581Z,100364.25
2023-04-20T09:34:54.859Z,100365.44
2023-04-20T09:37:23.040Z,100366.09
2023-04-20T09:39:56.049Z,100365.75
2023-04-20T09:42:28.129Z,100378.94
2023-04-20T09:44:56.095Z,100370.97
2023-04-20T09:47:25.939Z,100383.41
2023-04-20T09:49:54.762Z,100379.66
2023-04-20T09:52:24.330Z,100381.78
2023-04-20T09:54:51.802Z,100392.78
2023-04-20T09:57:19.416Z,100390.09
2023-04-20T09:59:47.274Z,100389.00
2023-04-20T10:02:15.108Z,100389.16
2023-04-20T10:04:56.740Z,100390.97
2023-04-20T10:07:28.907Z,100395.03
2023-04-20T10:10:14.163Z,100399.72
2023-04-20T10:12:53.192Z,100411.63
2023-04-20T10:15:24.463Z,100393.75
2023-04-20T10:17:52.125Z,100411.66
2023-04-20T10:20:24.427Z,100401.19
2023-04-20T10:22:53.734Z,100409.00
2023-04-20T10:25:24.714Z,100406.53
2023-04-20T10:27:57.375Z,100401.47
2023-04-20T10:30:26.854Z,100409.44
2023-04-20T10:33:08.749Z,100404.81
2023-04-20T10:35:43.356Z,100410.16
2023-04-20T10:38:12.941Z,100398.78
2023-04-20T10:40:40.310Z,100398.78
2023-04-20T10:43:21.476Z,100412.75
2023-04-20T10:45:50.282Z,100413.44
2023-04-20T10:48:18.419Z,100424.75
2023-04-20T10:50:46.064Z,100418.53
2023-04-20T10:53:23.917Z,100427.44
2023-04-20T10:56:01.259Z,100430.44
2023-04-20T10:58:28.790Z,100428.56
2023-04-20T11:01:05.856Z,100424.56
2023-04-20T11:03:34.642Z,100415.91
2023-04-20T11:06:04.015Z,100411.09
2023-04-20T11:08:43.235Z,100421.00
2023-04-20T11:11:28.316Z,100413.59
2023-04-20T11:14:09.219Z,100398.31
2023-04-20T11:16:50.530Z,100396.84
2023-04-20T11:19:24.175Z,100372.88
2023-04-20T11:21:51.577Z,100384.34
2023-04-20T11:24:20.400Z,100367.75
2023-04-20T11:26:50.356Z,100381.31
2023-04-20T11:29:39.246Z,100373.72
2023-04-20T11:32:09.596Z,100367.75
2023-04-20T11:34:39.101Z,100371.34
2023-04-20T11:37:13.114Z,100382.59
2023-04-20T11:39:41.249Z,100377.84
2023-04-20T11:42:08.619Z,100374.66
2023-04-20T11:44:37.045Z,100371.53
2023-04-20T11:47:04.833Z,100378.75
2023-04-20T11:49:32.430Z,100385.78
2023-04-20T11:52:00.170Z,100387.06
2023-04-20T11:54:28.469Z,100384.28
2023-04-20T11:56:56.516Z,100372.78
2023-04-20T11:59:23.922Z,100385.38
2023-04-20T12:01:52.231Z,100377.13
2023-04-20T12:04:19.737Z,100387.31
2023-04-20T12:06:47.451Z,100394.63
2023-04-20T12:09:15.137Z,100395.50
2023-04-20T12:11:42.596Z,100373.38
2023-04-20T12:14:09.995Z,100386.59
2023-04-20T12:16:37.458Z,100382.44
2023-04-20T12:19:04.819Z,100368.97
2023-04-20T12:21:32.550Z,100378.09
2023-04-20T12:23:59.943Z,100367.72
2023-04-20T12:26:37.181Z,100381.41
2023-04-20T12:29:05.803Z,100373.25
2023-04-20T12:31:33.324Z,100353.19
2023-04-20T12:34:00.690Z,100360.19
2023-04-20T12:36:28.337Z,100361.03
2023-04-20T12:38:56.146Z,100365.28
2023-04-20T12:41:23.817Z,100360.56
2023-04-20T12:43:51.454Z,100354.06
2023-04-20T12:46:19.167Z,100377.75
2023-04-20T12:48:46.594Z,100343.84
2023-04-20T12:51:15.233Z,100362.16
2023-04-20T12:53:42.582Z,100354.06
2023-04-20T12:56:09.987Z,100348.88
2023-04-20T12:58:37.320Z,100346.25
2023-04-20T13:01:04.671Z,100343.88
2023-04-20T13:03:32.813Z,100332.28
2023-04-20T13:06:00.611Z,100324.94
2023-04-20T13:08:28.010Z,100342.06
2023-04-20T13:10:55.385Z,100326.41
2023-04-20T13:13:22.778Z,100334.56
2023-04-20T13:15:50.420Z,100327.75
2023-04-20T13:18:17.758Z,100323.88
2023-04-20T13:20:45.195Z,100337.13
2023-04-20T13:23:12.516Z,100327.28
2023-04-20T13:25:40.785Z,100323.78
2023-04-20T13:28:08.122Z,100334.06
2023-04-20T13:30:35.581Z,100331.78
2023-04-20T13:33:02.964Z,100335.06
2023-04-20T13:35:31.595Z,100328.78
2023-04-20T13:37:59.114Z,100323.06
2023-04-20T13:40:26.499Z,100329.56
2023-04-20T13:42:53.834Z,100336.72
2023-04-20T13:45:21.219Z,100329.00
2023-04-20T13:47:48.685Z,100330.66
2023-04-20T13:50:16.196Z,100328.50
2023-04-20T13:52:43.499Z,100324.28
2023-04-20T13:55:11.296Z,100326.97
2023-04-20T13:57:38.675Z,100328.91
2023-04-20T14:00:07.534Z,100331.59
2023-04-20T14:02:36.146Z,100326.00
2023-04-20T14:05:04.188Z,100327.38
2023-04-20T14:07:32.432Z,100323.75
2023-04-20T14:10:00.002Z,100327.97
2023-04-20T14:12:49.396Z,100329.00
2023-04-20T14:15:16.939Z,100315.28
2023-04-20T14:17:44.358Z,100326.78
2023-04-20T14:20:12.349Z,100332.13
2023-04-20T14:22:39.718Z,100337.06
2023-04-20T14:25:07.522Z,100329.22
2023-04-20T14:27:34.889Z,100319.44
2023-04-20T14:30:03.862Z,100319.28
2023-04-20T14:32:31.471Z,100332.41
2023-04-20T14:34:59.000Z,100339.91
2023-04-20T14:37:27.511Z,100337.22
2023-04-20T14:39:54.988Z,100332.97
2023-04-20T14:42:23.076Z,100328.94
2023-04-20T14:44:50.933Z,100340.44
2023-04-20T14:47:18.682Z,100330.09
2023-04-20T14:49:46.105Z,100340.66
2023-04-20T14:52:13.528Z,100348.03
2023-04-20T14:54:40.975Z,100334.88
2023-04-20T14:57:08.421Z,100333.50
2023-04-20T14:59:37.212Z,100345.00
2023-04-20T15:02:05.916Z,100335.88
2023-04-20T15:04:33.844Z,100335.53
2023-04-20T15:07:01.415Z,100340.44
2023-04-20T15:09:29.245Z,100339.22
2023-04-20T15:11:57.063Z,100335.38
2023-04-20T15:14:25.214Z,100325.16
2023-04-20T15:16:52.959Z,100320.81
2023-04-20T15:19:21.558Z,100329.09
2023-04-20T15:21:49.439Z,100338.69
2023-04-20T15:24:17.232Z,100348.69
2023-04-20T15:26:44.957Z,100336.81
2023-04-20T15:29:12.472Z,100333.41
2023-04-20T15:31:40.412Z,100323.78
2023-04-20T15:34:08.033Z,100321.84
2023-04-20T15:36:35.601Z,100331.66
2023-04-20T15:39:03.853Z,100330.91
2023-04-20T15:41:31.393Z,100347.69
2023-04-20T15:43:58.851Z,100316.78
2023-04-20T15:46:26.648Z,100327.00
2023-04-20T15:48:54.249Z,100320.56
2023-04-20T15:51:21.722Z,100333.28
2023-04-20T15:53:50.798Z,100340.16
2023-04-20T15:56:22.288Z,100328.00
2023-04-20T15:58:50.953Z,100329.56
2023-04-20T16:01:19.741Z,100331.56
2023-04-20T16:03:47.996Z,100335.66
2023-04-20T16:06:15.557Z,100330.69
2023-04-20T16:08:43.013Z,100355.72
2023-04-20T16:11:10.552Z,100350.22
2023-04-20T16:13:38.028Z,100349.56
2023-04-20T16:16:05.690Z,100323.69
2023-04-20T16:18:33.074Z,100331.41
2023-04-20T16:21:00.610Z,100343.84
2023-04-20T16:23:28.747Z,100346.19
2023-04-20T16:25:56.252Z,100355.56
2023-04-20T16:28:23.617Z,100339.75
2023-04-20T16:30:50.986Z,100354.63
2023-04-20T16:33:18.899Z,100354.28
2023-04-20T16:35:46.377Z,100354.56
2023-04-20T16:38:13.924Z,100342.00
2023-04-20T16:40:42.758Z,100342.78
2023-04-20T16:43:10.372Z,100352.78
2023-04-20T16:45:39.105Z,100334.09
2023-04-20T16:48:08.103Z,100348.38
2023-04-20T16:50:37.789Z,100352.94
2023-04-20T16:53:06.839Z,100363.97
2023-04-20T16:55:34.407Z,100357.13
2023-04-20T16:58:01.786Z,100356.50
2023-04-20T17:00:30.540Z,100354.69
2023-04-20T17:02:58.663Z,100363.06
2023-04-20T17:05:26.029Z,100358.56
2023-04-20T17:07:53.352Z,100361.13
2023-04-20T17:10:21.395Z,100362.81
2023-04-20T17:12:50.878Z,100377.13
2023-04-20T17:15:18.582Z,100366.13
2023-04-20T17:17:46.016Z,100382.13
2023-04-20T17:20:13.836Z,100372.19
2023-04-20T17:22:41.356Z,100393.63
2023-04-20T17:25:09.439Z,100386.41
2023-04-20T17:27:36.828Z,100409.22
2023-04-20T17:30:05.680Z,100426.75
2023-04-20T17:32:33.454Z,100424.09
2023-04-20T17:35:01.111Z,100426.03
2023-04-20T17:37:28.454Z,100434.66
2023-04-20T17:39:55.970Z,100456.59
2023-04-20T17:42:23.460Z,100453.16
2023-04-20T17:44:51.403Z,100450.09
2023-04-20T17:47:18.832Z,100471.06
2023-04-20T17:49:46.236Z,100472.22
2023-04-20T17:52:17.929Z,100486.34
2023-04-20T17:54:45.505Z,100486.22
2023-04-20T17:57:14.196Z,100485.69
2023-04-20T17:59:44.585Z,100486.75
2023-04-20T18:02:12.776Z,100495.69
2023-04-20T18:04:40.516Z,100474.91
2023-04-20T18:07:07.897Z,100500.22
2023-04-20T18:09:35.355Z,100492.34
2023-04-20T18:12:02.783Z,100501.69
2023-04-20T18:14:30.129Z,100503.50
2023-04-20T18:16:57.489Z,100488.03
2023-04-20T18:19:24.936Z,100465.06
2023-04-20T18:21:52.288Z,100479.38
2023-04-20T18:24:19.759Z,100463.53
2023-04-20T18:26:47.251Z,100489.84
2023-04-20T18:29:14.611Z,100483.66
2023-04-20T18:31:42.757Z,100484.19
2023-04-20T18:34:12.859Z,100486.13
2023-04-20T18:36:40.859Z,100479.78
2023-04-20T18:39:11.141Z,100480.97
2023-04-20T18:41:38.611Z,100505.34
2023-04-20T18:44:07.696Z,100491.09
2023-04-20T18:46:35.196Z,100498.41
2023-04-20T18:49:02.701Z,100486.56
2023-04-20T18:51:30.133Z,100510.25
2023-04-20T18:53:58.047Z,100478.75
2023-04-20T18:56:25.882Z,100480.59
2023-04-20T18:58:53.260Z,100499.66
2023-04-20T19:01:20.655Z,100499.66
2023-04-20T19:03:50.202Z,100491.22
2023-04-20T19:06:17.662Z,100504.00
2023-04-20T19:08:45.079Z,100492.44
2023-04-20T19:11:12.529Z,100496.16
2023-04-20T19:13:44.486Z,100482.69
2023-04-20T19:16:12.776Z,100486.78
2023-04-20T19:18:40.406Z,100476.41
2023-04-20T19:21:07.810Z,100481.56
2023-04-20T19:23:36.282Z,100492.00
2023-04-20T19:26:04.220Z,100483.00
2023-04-20T19:28:31.699Z,100502.41
2023-04-20T19:31:00.015Z,100493.06
2023-04-20T19:33:27.387Z,100478.66
2023-04-20T19:35:54.943Z,100503.34
2023-04-20T19:38:24.488Z,100511.28
2023-04-20T19:40:52.260Z,100507.16
2023-04-20T19:43:19.728Z,100514.66
2023-04-20T19:45:47.669Z,100513.78
2023-04-20T19:48:15.360Z,100502.28
2023-04-20T19:50:42.711Z,100505.78
2023-04-20T19:53:10.187Z,100506.88
2023-04-20T19:55:37.803Z,100483.13
2023-04-20T19:58:09.224Z,100503.97
2023-04-20T20:00:40.051Z,100490.88
2023-04-20T20:03:08.164Z,100504.50
2023-04-20T20:05:35.831Z,100500.03
2023-04-20T20:08:04.427Z,100491.50
2023-04-20T20:10:32.317Z,100496.56
2023-04-20T20:12:59.646Z,100512.13
2023-04-20T20:15:27.124Z,100508.03
2023-04-20T20:17:58.715Z,100514.03
2023-04-20T20:20:32.350Z,100522.84
2023-04-20T20:23:00.198Z,100526.91
2023-04-20T20:25:27.548Z,100511.66
2023-04-20T20:27:54.943Z,100505.59
2023-04-20T20:30:22.500Z,100522.28
2023-04-20T20:32:50.352Z,100521.44
2023-04-20T20:35:17.761Z,100512.53
2023-04-20T20:37:45.342Z,100517.25
2023-04-20T20:40:15.240Z,100506.66
2023-04-20T20:42:45.066Z,100518.19
2023-04-20T20:45:13.109Z,100503.78
2023-04-20T20:47:42.243Z,100522.59
2023-04-20T20:50:11.557Z,100509.63
2023-04-20T20:52:39.256Z,100520.19
2023-04-20T20:55:07.993Z,100526.13
2023-04-20T20:57:35.992Z,100527.19
2023-04-20T21:00:09.527Z,100530.19
2023-04-20T21:02:37.774Z,100526.44
2023-04-20T21:05:06.441Z,100536.25
2023-04-20T21:07:33.857Z,100515.16
2023-04-20T21:10:01.295Z,100513.38
2023-04-20T21:12:28.971Z,100519.03
2023-04-20T21:14:56.879Z,100499.81
2023-04-20T21:17:24.252Z,100489.16
2023-04-20T21:19:51.670Z,100487.22
2023-04-20T21:22:20.198Z,100501.25
2023-04-20T21:24:47.534Z,100483.00
2023-04-20T21:27:14.854Z,100487.22
2023-04-20T21:29:42.211Z,100493.84
2023-04-20T21:32:09.954Z,100491.44
2023-04-20T21:34:37.353Z,100522.94
2023-04-20T21:37:05.732Z,100511.00
2023-04-20T21:39:33.452Z,100498.97
2023-04-20T21:42:01.503Z,100490.88
2023-04-20T21:44:28.988Z,100488.41
2023-04-20T21:46:56.388Z,100496.28
2023-04-20T21:49:23.729Z,100498.28
2023-04-20T21:51:51.155Z,100499.84
2023-04-20T21:54:18.478Z,100493.75
2023-04-20T21:56:46.631Z,100496.34
2023-04-20T21:59:14.504Z,100481.22
2023-04-20T22:01:41.865Z,100482.28
2023-04-20T22:04:09.662Z,100518.78
2023-04-20T22:06:37.292Z,100498.69
2023-04-20T22:09:05.069Z,100507.28
2023-04-20T22:11:36.436Z,100499.34
2023-04-20T22:14:04.588Z,100521.47
2023-04-20T22:16:34.022Z,100516.66
2023-04-20T22:19:01.580Z,100514.69
2023-04-20T22:21:28.970Z,100515.38
2023-04-20T22:23:56.323Z,100524.38
2023-04-20T22:26:23.828Z,100529.38
2023-04-20T22:28:51.271Z,100508.00
2023-04-20T22:31:18.710Z,100511.28
2023-04-20T22:33:46.139Z,100523.56
2023-04-20T22:36:13.671Z,100529.72
2023-04-20T22:38:41.163Z,100519.50
2023-04-20T22:41:08.766Z,100526.97
2023-04-20T22:43:36.170Z,100523.44
2023-04-20T22:46:03.622Z,100523.50
2023-04-20T22:48:31.134Z,100522.75
2023-04-20T22:51:01.439Z,100525.31
2023-04-20T22:53:31.658Z,100513.09
2023-04-20T22:56:03.780Z,100519.97
2023-04-20T22:58:31.500Z,100534.91
2023-04-20T23:00:59.291Z,100515.25
2023-04-20T23:03:27.143Z,100526.81
2023-04-20T23:05:57.462Z,100538.66
2023-04-20T23:08:26.002Z,100514.91
2023-04-20T23:10:56.401Z,100514.00
2023-04-20T23:13:26.481Z,100516.34
2023-04-20T23:15:54.263Z,100504.94
2023-04-20T23:18:21.731Z,100510.09
2023-04-20T23:20:49.099Z,100517.47
2023-04-20T23:23:16.486Z,100503.53
2023-04-20T23:25:44.096Z,100493.06
2023-04-20T23:28:11.557Z,100513.09
2023-04-20T23:30:39.011Z,100509.69
2023-04-20T23:33:06.498Z,100505.47
2023-04-20T23:35:34.310Z,100514.97
2023-04-20T23:38:03.328Z,100501.81
2023-04-20T23:40:31.217Z,100514.16
2023-04-20T23:42:58.681Z,100511.44
2023-04-20T23:45:26.096Z,100509.81
2023-04-20T23:47:53.581Z,100495.81
2023-04-20T23:50:21.169Z,100510.69
2023-04-20T23:52:48.695Z,100494.59
2023-04-20T23:55:16.196Z,100489.59
2023-04-20T23:57:43.725Z,100481.53
